Time;durP1;ratioP1;P1;durP2;ratioP2;P2;SDS_P1;SDS_P2;PMS_P1;PMS_P2;Temp;Humidity;BMP_temperature;BMP_pressure;BME280_temperature;BME280_humidity;BME280_pressure;Samples;Min_cycle;Max_cycle;Signal;HPM_P1;HPM_P2
2023/01/04 00:00:44;;;;;;;16.90;8.05;;;6.30;74.00;;;;;;5042134;28;20026;-64
2023/01/04 00:03:10;;;;;;;14.48;7.15;;;6.30;74.00;;;;;;5039992;28;20080;-63
2023/01/04 00:05:36;;;;;;;12.70;6.35;;;6.30;74.00;;;;;;5042823;28;20055;-64
2023/01/04 00:08:02;;;;;;;11.38;7.95;;;6.50;74.20;;;;;;5042753;28;20030;-63
2023/01/04 00:10:27;;;;;;;18.00;7.90;;;6.30;74.20;;;;;;5044673;28;20028;-64
2023/01/04 00:12:53;;;;;;;12.15;7.88;;;6.30;74.40;;;;;;5042519;28;20041;-63
2023/01/04 00:15:18;;;;;;;11.30;7.75;;;6.30;74.40;;;;;;5040287;28;20111;-63
2023/01/04 00:17:44;;;;;;;10.77;7.35;;;6.40;74.50;;;;;;5037998;28;20029;-63
2023/01/04 00:20:10;;;;;;;13.13;7.60;;;6.40;74.60;;;;;;4945554;28;20030;-63
2023/01/04 00:22:35;;;;;;;12.93;7.72;;;6.40;74.60;;;;;;5046857;28;20030;-63
2023/01/04 00:25:01;;;;;;;10.98;7.75;;;6.40;74.60;;;;;;5051992;28;20052;-63
2023/01/04 00:27:27;;;;;;;15.70;7.72;;;6.50;74.70;;;;;;5054148;28;20043;-63
2023/01/04 00:29:52;;;;;;;11.75;7.15;;;6.50;74.70;;;;;;5050460;28;20046;-62
2023/01/04 00:32:18;;;;;;;11.23;7.70;;;6.50;74.60;;;;;;5051754;28;20053;-63
2023/01/04 00:34:43;;;;;;;11.00;7.63;;;6.50;74.60;;;;;;5047361;28;20091;-63
2023/01/04 00:37:09;;;;;;;13.02;9.07;;;6.50;74.50;;;;;;5042043;28;20086;-63
2023/01/04 00:39:35;;;;;;;11.73;8.27;;;6.50;74.50;;;;;;5048004;28;20408;-63
2023/01/04 00:42:06;;;;;;;13.18;8.77;;;6.50;74.50;;;;;;5026274;28;20024;-66
2023/01/04 00:44:33;;;;;;;12.10;8.30;;;6.60;74.60;;;;;;5037791;28;20555;-64
2023/01/04 00:47:01;;;;;;;11.13;8.48;;;6.60;74.60;;;;;;5044349;28;20018;-65
2023/01/04 00:49:27;;;;;;;11.75;8.20;;;6.60;74.60;;;;;;5044660;28;20041;-65
2023/01/04 00:51:53;;;;;;;12.73;9.07;;;6.60;74.70;;;;;;5039132;28;20476;-66
2023/01/04 00:54:20;;;;;;;13.30;8.80;;;6.60;74.90;;;;;;5039287;28;20073;-65
2023/01/04 00:56:46;;;;;;;13.68;9.48;;;6.60;75.00;;;;;;5036646;28;20026;-64
2023/01/04 00:59:14;;;;;;;13.18;9.55;;;6.70;75.30;;;;;;5027291;28;20030;-64
2023/01/04 01:01:41;;;;;;;15.00;9.05;;;6.70;75.50;;;;;;5040840;28;20048;-65
2023/01/04 01:04:13;;;;;;;13.30;9.48;;;6.70;75.60;;;;;;5043999;28;20110;-65
2023/01/04 01:06:39;;;;;;;12.00;8.68;;;6.80;75.90;;;;;;5036739;28;20027;-65
2023/01/04 01:09:05;;;;;;;11.43;8.35;;;6.80;75.90;;;;;;5031247;28;20053;-66
2023/01/04 01:11:30;;;;;;;13.73;8.65;;;6.90;75.90;;;;;;5024984;28;20026;-64
2023/01/04 01:13:57;;;;;;;13.40;8.63;;;6.90;75.90;;;;;;5027067;28;20037;-65
2023/01/04 01:16:25;;;;;;;11.88;8.82;;;6.90;75.70;;;;;;5032944;28;21794;-63
2023/01/04 01:18:51;;;;;;;13.68;9.10;;;7.00;75.90;;;;;;5044824;28;20045;-64
2023/01/04 01:21:20;;;;;;;13.30;8.88;;;7.00;75.90;;;;;;5041327;28;20022;-65
2023/01/04 01:23:47;;;;;;;10.45;7.95;;;7.10;75.80;;;;;;5038021;28;20025;-65
2023/01/04 01:26:15;;;;;;;9.43;7.53;;;7.10;75.70;;;;;;5036105;28;20099;-65
2023/01/04 01:28:41;;;;;;;11.55;8.23;;;7.10;75.80;;;;;;5029594;28;20041;-64
2023/01/04 01:31:19;;;;;;;9.10;7.43;;;7.10;75.70;;;;;;5042360;28;20029;-64
2023/01/04 01:33:46;;;;;;;9.07;6.80;;;7.10;76.10;;;;;;5041188;28;20038;-65
2023/01/04 01:36:13;;;;;;;11.48;7.18;;;7.20;75.50;;;;;;5032286;28;20031;-64
2023/01/04 01:38:40;;;;;;;8.52;6.40;;;7.20;75.40;;;;;;5037205;28;20033;-65
2023/01/04 01:41:06;;;;;;;9.20;6.57;;;7.20;75.20;;;;;;5037249;28;20034;-64
2023/01/04 01:43:55;;;;;;;7.97;5.88;;;7.20;75.30;;;;;;5035736;28;20101;-65
2023/01/04 01:46:32;;;;;;;8.82;6.63;;;7.20;75.10;;;;;;5040701;28;20034;-65
2023/01/04 01:49:04;;;;;;;6.20;5.22;;;7.20;74.90;;;;;;5035012;28;20614;-64
2023/01/04 01:51:31;;;;;;;8.40;6.40;;;7.10;74.80;;;;;;5028102;28;20048;-65
2023/01/04 01:54:14;;;;;;;9.25;6.63;;;7.10;74.60;;;;;;5039765;28;20592;-64
2023/01/04 01:56:42;;;;;;;8.30;5.32;;;7.10;74.70;;;;;;5039958;28;20461;-64
2023/01/04 01:59:10;;;;;;;8.00;6.00;;;7.10;74.60;;;;;;5043117;28;20060;-67
2023/01/04 02:01:36;;;;;;;8.10;5.80;;;7.10;74.80;;;;;;5035034;28;20044;-64
2023/01/04 02:04:03;;;;;;;8.73;5.90;;;7.10;75.00;;;;;;5041829;28;20060;-64
2023/01/04 02:06:33;;;;;;;9.00;6.38;;;7.20;75.20;;;;;;5035132;28;20029;-64
2023/01/04 02:09:01;;;;;;;7.07;5.75;;;7.20;75.20;;;;;;5036220;28;20060;-63
2023/01/04 02:11:26;;;;;;;8.55;6.25;;;7.20;75.10;;;;;;5037984;28;20039;-64
2023/01/04 02:16:55;;;;;;;;;;;7.20;75.10;;;;;;5031341;28;20048;-63
2023/01/04 02:19:27;;;;;;;6.68;5.03;;;7.30;75.70;;;;;;5040604;28;19956;-63
2023/01/04 02:22:22;;;;;;;8.85;5.85;;;7.30;74.70;;;;;;5029809;28;20034;-62
2023/01/04 02:24:51;;;;;;;6.57;5.57;;;7.30;75.10;;;;;;5037651;28;20037;-62
2023/01/04 02:27:44;;;;;;;7.25;5.80;;;7.30;74.60;;;;;;5034036;28;20345;-62
2023/01/04 02:30:29;;;;;;;8.13;5.97;;;7.40;74.90;;;;;;5031761;28;20527;-63
2023/01/04 02:33:20;;;;;;;8.05;6.03;;;7.40;74.60;;;;;;5030787;28;20074;-63
2023/01/04 02:36:22;;;;;;;8.35;5.80;;;7.40;75.10;;;;;;5035303;28;20057;-63
2023/01/04 02:39:13;;;;;;;8.25;6.03;;;7.40;75.00;;;;;;5045550;28;20064;-63
2023/01/04 02:42:14;;;;;;;7.45;5.78;;;7.50;75.00;;;;;;5039122;28;20580;-63
2023/01/04 02:45:03;;;;;;;9.20;6.68;;;7.50;75.00;;;;;;5033997;28;20029;-63
2023/01/04 02:50:32;;;;;;;9.30;5.88;;;7.50;74.70;;;;;;5037609;28;20055;-63
2023/01/04 02:53:10;;;;;;;9.02;6.50;;;7.50;74.70;;;;;;5036686;28;20491;-63
2023/01/04 02:56:00;;;;;;;9.75;6.32;;;7.50;74.80;;;;;;5028931;28;20039;-63
2023/01/04 02:58:49;;;;;;;8.93;5.80;;;7.50;74.70;;;;;;5038141;28;20033;-63
2023/01/04 03:07:48;;;;;;;8.15;5.95;;;7.60;74.80;;;;;;5037844;28;20067;-64
2023/01/04 03:10:38;;;;;;;8.05;6.10;;;7.60;74.80;;;;;;5035080;28;20045;-65
2023/01/04 03:13:15;;;;;;;7.95;5.85;;;7.60;74.80;;;;;;5031815;28;20045;-64
2023/01/04 03:15:43;;;;;;;9.07;6.65;;;7.60;74.80;;;;;;5037662;28;20026;-65
2023/01/04 03:18:17;;;;;;;10.30;6.55;;;7.60;74.70;;;;;;5031105;28;20036;-64
2023/01/04 03:20:45;;;;;;;8.43;6.03;;;7.60;74.70;;;;;;5026692;28;20090;-64
2023/01/04 03:37:46;;;;;;;8.25;5.78;;;7.60;74.10;;;;;;5011844;28;20188;-64
2023/01/04 03:49:30;;;;;;;7.80;5.18;;;7.60;74.50;;;;;;5011863;28;20064;-62
2023/01/04 03:51:59;;;;;;;9.60;6.07;;;7.60;74.20;;;;;;4997705;28;20034;-62
2023/01/04 03:54:37;;;;;;;7.47;5.78;;;7.60;74.40;;;;;;5011595;28;20536;-63
2023/01/04 03:57:05;;;;;;;6.85;4.97;;;7.60;74.20;;;;;;5019713;28;20045;-62
2023/01/04 03:59:35;;;;;;;7.45;5.85;;;7.60;74.10;;;;;;5003416;28;20572;-62
2023/01/04 04:02:02;;;;;;;6.72;5.10;;;7.60;74.10;;;;;;5010191;28;20030;-63
2023/01/04 04:09:55;;;;;;;8.55;5.93;;;7.60;74.20;;;;;;5009674;28;20308;-63
2023/01/04 04:12:21;;;;;;;8.32;5.93;;;7.60;74.30;;;;;;5034722;28;20037;-62
2023/01/04 04:14:46;;;;;;;7.85;5.78;;;7.60;74.30;;;;;;5036943;28;20030;-63
2023/01/04 04:17:12;;;;;;;6.20;5.35;;;7.60;74.50;;;;;;5040669;28;20029;-63
2023/01/04 04:19:38;;;;;;;6.82;5.25;;;7.60;74.50;;;;;;5040913;28;20047;-63
2023/01/04 04:22:03;;;;;;;7.38;5.80;;;7.60;74.40;;;;;;5031983;28;20041;-63
2023/01/04 04:24:29;;;;;;;7.03;5.28;;;7.70;74.50;;;;;;5035392;28;20034;-63
2023/01/04 04:26:55;;;;;;;6.85;5.15;;;7.70;74.50;;;;;;5042473;28;20341;-62
2023/01/04 04:29:22;;;;;;;11.82;5.50;;;7.70;74.50;;;;;;5037807;28;20042;-63
2023/01/04 04:31:48;;;;;;;7.93;5.72;;;7.70;74.40;;;;;;5036690;28;20777;-63
2023/01/04 04:34:14;;;;;;;7.25;5.53;;;7.70;74.30;;;;;;5041486;28;20028;-63
2023/01/04 04:36:40;;;;;;;7.53;5.63;;;7.70;74.10;;;;;;5040115;28;20033;-63
2023/01/04 04:39:05;;;;;;;7.60;5.63;;;7.70;74.20;;;;;;5037213;28;20029;-64
2023/01/04 04:41:37;;;;;;;8.30;6.40;;;7.70;74.20;;;;;;5037145;28;20033;-64
2023/01/04 04:44:03;;;;;;;8.73;6.15;;;7.70;74.00;;;;;;5037503;28;20030;-64
2023/01/04 04:46:29;;;;;;;9.18;6.07;;;7.70;74.00;;;;;;5033788;28;20054;-63
2023/01/04 04:48:54;;;;;;;8.35;5.93;;;7.70;74.00;;;;;;5038366;28;20866;-63
2023/01/04 04:51:20;;;;;;;9.32;5.30;;;7.60;73.80;;;;;;5037844;28;20047;-63
2023/01/04 04:53:47;;;;;;;7.63;5.50;;;7.60;73.80;;;;;;5040672;28;20033;-63
2023/01/04 04:56:13;;;;;;;5.70;4.82;;;7.60;73.70;;;;;;5044848;28;20060;-63
2023/01/04 04:58:39;;;;;;;8.18;5.95;;;7.60;73.60;;;;;;5046406;28;20029;-64
2023/01/04 05:01:05;;;;;;;11.77;5.60;;;7.50;73.50;;;;;;5035501;28;20087;-63
2023/01/04 05:03:32;;;;;;;9.13;5.78;;;7.50;73.50;;;;;;5039567;28;20040;-63
2023/01/04 05:05:58;;;;;;;7.85;6.00;;;7.40;73.70;;;;;;5030034;28;20117;-63
2023/01/04 05:08:23;;;;;;;7.85;5.53;;;7.40;73.80;;;;;;5029672;28;20042;-64
2023/01/04 05:10:49;;;;;;;7.65;5.88;;;7.30;73.70;;;;;;5039409;28;20021;-63
2023/01/04 05:13:14;;;;;;;7.18;5.45;;;7.30;73.80;;;;;;5039884;28;20061;-64
2023/01/04 05:15:43;;;;;;;8.18;5.47;;;7.30;73.90;;;;;;5040429;28;20033;-63
2023/01/04 05:18:11;;;;;;;7.38;5.78;;;7.20;73.80;;;;;;5037684;28;20033;-63
2023/01/04 05:20:37;;;;;;;8.90;6.70;;;7.20;73.80;;;;;;5039838;28;20025;-63
2023/01/04 05:23:04;;;;;;;9.02;6.55;;;7.20;73.80;;;;;;5039165;28;20033;-64
2023/01/04 05:25:30;;;;;;;10.45;7.45;;;7.20;73.80;;;;;;5040864;28;20033;-63
2023/01/04 05:27:56;;;;;;;10.00;6.80;;;7.20;73.90;;;;;;5038143;28;20030;-62
2023/01/04 05:33:06;;;;;;;;;;;7.10;73.80;;;;;;5048905;28;20097;-62
2023/01/04 05:35:32;;;;;;;7.40;4.78;;;7.10;74.00;;;;;;5036710;28;19917;-61
2023/01/04 05:37:58;;;;;;;8.07;5.07;;;7.00;73.50;;;;;;5037178;28;20040;-62
2023/01/04 05:40:24;;;;;;;7.85;5.72;;;7.00;73.60;;;;;;5040619;28;20028;-62
2023/01/04 05:42:50;;;;;;;8.55;6.15;;;7.00;73.80;;;;;;5037017;28;20025;-62
2023/01/04 05:45:16;;;;;;;7.07;5.10;;;6.90;74.00;;;;;;5047346;28;20029;-62
2023/01/04 05:47:42;;;;;;;9.52;5.68;;;6.90;73.90;;;;;;5044001;28;20033;-63
2023/01/04 05:50:08;;;;;;;7.15;5.20;;;6.90;74.00;;;;;;5043469;28;20083;-63
2023/01/04 05:52:34;;;;;;;8.95;4.90;;;6.80;74.00;;;;;;5035909;28;20054;-65
2023/01/04 05:55:00;;;;;;;6.80;4.95;;;6.80;74.00;;;;;;5037755;28;20025;-64
2023/01/04 05:57:26;;;;;;;7.93;5.55;;;6.80;74.00;;;;;;5041435;28;20044;-64
2023/01/04 05:59:52;;;;;;;8.02;5.28;;;6.80;74.10;;;;;;5039577;28;20030;-64
2023/01/04 06:02:24;;;;;;;7.88;5.05;;;6.80;74.00;;;;;;5030042;28;20034;-64
2023/01/04 06:04:50;;;;;;;7.72;4.90;;;6.80;74.00;;;;;;5034048;28;20041;-63
2023/01/04 06:07:16;;;;;;;9.07;4.93;;;6.80;74.00;;;;;;5051594;28;20040;-63
2023/01/04 06:09:42;;;;;;;6.80;4.63;;;6.80;73.90;;;;;;5033375;28;20045;-63
2023/01/04 06:12:10;;;;;;;8.43;5.88;;;6.80;73.90;;;;;;5041014;28;20029;-63
2023/01/04 06:14:35;;;;;;;6.88;4.95;;;6.70;73.90;;;;;;5037360;28;20028;-63
2023/01/04 06:17:01;;;;;;;8.80;5.35;;;6.70;73.80;;;;;;5032750;28;20114;-63
2023/01/04 06:19:27;;;;;;;7.85;4.90;;;6.70;73.80;;;;;;5034432;28;20033;-63
2023/01/04 06:21:53;;;;;;;8.23;5.35;;;6.70;73.90;;;;;;5038288;28;20399;-64
2023/01/04 06:24:19;;;;;;;5.85;4.72;;;6.60;73.90;;;;;;5036912;28;20029;-63
2023/01/04 06:26:45;;;;;;;8.75;5.20;;;6.70;74.00;;;;;;5034847;28;20069;-63
2023/01/04 06:29:10;;;;;;;11.18;7.15;;;6.60;74.10;;;;;;5043795;28;20040;-63
2023/01/04 06:31:36;;;;;;;11.32;7.28;;;6.60;74.10;;;;;;5032975;28;20029;-63
2023/01/04 06:34:02;;;;;;;8.88;5.80;;;6.60;74.20;;;;;;5031929;28;20017;-63
2023/01/04 06:36:28;;;;;;;9.93;6.47;;;6.60;74.30;;;;;;5036741;28;20034;-63
2023/01/04 06:38:56;;;;;;;9.00;5.63;;;6.60;74.30;;;;;;5037055;28;20021;-63
2023/01/04 06:41:22;;;;;;;11.65;5.63;;;6.60;74.30;;;;;;5038916;28;20033;-63
2023/01/04 06:43:48;;;;;;;8.05;5.60;;;6.60;74.30;;;;;;5032968;28;20038;-63
2023/01/04 06:46:14;;;;;;;7.00;5.32;;;6.60;74.30;;;;;;5033497;28;20543;-63
2023/01/04 06:48:39;;;;;;;7.68;5.03;;;6.60;74.30;;;;;;5031001;28;20052;-63
2023/01/04 06:51:05;;;;;;;8.02;5.35;;;6.60;74.40;;;;;;5035252;28;20085;-63
2023/01/04 06:53:31;;;;;;;6.93;4.95;;;6.60;74.50;;;;;;5042412;28;20049;-64
2023/01/04 06:55:56;;;;;;;7.50;5.13;;;6.60;74.60;;;;;;5043318;28;20021;-63
2023/01/04 06:58:22;;;;;;;7.97;5.82;;;6.60;74.70;;;;;;5035023;28;20040;-63
2023/01/04 07:00:50;;;;;;;7.63;4.97;;;6.60;74.70;;;;;;5034267;28;20204;-63
2023/01/04 07:03:16;;;;;;;7.57;4.90;;;6.60;74.80;;;;;;5036980;28;20315;-63
2023/01/04 07:05:43;;;;;;;6.40;4.70;;;6.60;74.80;;;;;;5026782;28;20033;-63
2023/01/04 07:08:09;;;;;;;8.25;5.35;;;6.60;74.80;;;;;;5035666;28;20049;-64
2023/01/04 07:10:35;;;;;;;11.00;6.78;;;6.60;74.70;;;;;;5030297;28;20040;-63
2023/01/04 07:13:01;;;;;;;11.55;6.63;;;6.60;74.60;;;;;;5032550;28;20017;-63
2023/01/04 07:15:27;;;;;;;10.18;6.28;;;6.60;74.70;;;;;;5024573;28;20057;-64
2023/01/04 07:17:56;;;;;;;10.32;6.57;;;6.60;74.90;;;;;;5004401;28;20021;-65
2023/01/04 07:20:22;;;;;;;9.60;6.10;;;6.60;75.70;;;;;;5035623;28;21956;-63
2023/01/04 07:22:48;;;;;;;9.63;5.78;;;6.60;74.70;;;;;;5037358;28;20029;-63
2023/01/04 07:25:13;;;;;;;10.38;6.50;;;6.70;74.90;;;;;;5036329;28;20105;-63
2023/01/04 07:27:39;;;;;;;8.80;6.00;;;6.70;74.90;;;;;;5034950;28;20451;-64
2023/01/04 07:30:05;;;;;;;10.18;5.80;;;6.70;75.00;;;;;;5039436;28;20041;-65
2023/01/04 07:32:31;;;;;;;9.40;6.25;;;6.70;75.10;;;;;;5029006;28;20025;-65
2023/01/04 07:34:57;;;;;;;10.27;5.80;;;6.80;75.40;;;;;;5029339;28;20425;-64
2023/01/04 07:37:23;;;;;;;9.65;6.18;;;6.80;75.30;;;;;;5037596;28;20101;-65
2023/01/04 07:39:49;;;;;;;9.77;6.20;;;6.80;75.30;;;;;;5039114;28;20025;-64
2023/01/04 07:42:15;;;;;;;10.20;6.35;;;6.90;75.30;;;;;;5029725;28;20037;-64
2023/01/04 07:44:40;;;;;;;9.85;6.13;;;6.90;75.40;;;;;;5032627;28;20071;-65
2023/01/04 07:47:06;;;;;;;8.93;6.25;;;7.00;75.40;;;;;;5032672;28;20037;-63
2023/01/04 07:49:32;;;;;;;11.13;6.90;;;7.00;75.50;;;;;;5037731;28;20041;-64
2023/01/04 07:51:57;;;;;;;9.70;6.50;;;7.10;75.70;;;;;;5035621;28;20169;-64
2023/01/04 07:54:24;;;;;;;10.13;6.25;;;7.20;75.70;;;;;;5039780;28;20103;-64
2023/01/04 07:56:50;;;;;;;9.50;5.85;;;7.20;75.80;;;;;;5036615;28;20037;-64
2023/01/04 07:59:18;;;;;;;12.32;6.15;;;7.30;76.00;;;;;;5046713;28;20033;-64
2023/01/04 08:01:45;;;;;;;12.57;6.55;;;7.40;75.90;;;;;;5032326;28;20444;-65
2023/01/04 08:04:12;;;;;;;9.93;6.75;;;7.50;75.90;;;;;;5047130;28;20090;-64
2023/01/04 08:06:39;;;;;;;9.20;6.43;;;7.50;75.80;;;;;;5042936;28;20037;-65
2023/01/04 08:09:05;;;;;;;10.15;6.65;;;7.60;75.90;;;;;;5039607;28;20033;-64
2023/01/04 08:11:32;;;;;;;9.82;6.53;;;7.60;75.80;;;;;;5049720;28;20025;-65
2023/01/04 08:13:58;;;;;;;9.70;6.40;;;7.70;75.60;;;;;;5046432;28;20021;-65
2023/01/04 08:16:26;;;;;;;8.63;6.10;;;7.80;75.80;;;;;;5051089;28;20081;-64
2023/01/04 08:18:56;;;;;;;9.73;5.95;;;7.90;75.70;;;;;;5038471;28;20041;-64
2023/01/04 08:21:22;;;;;;;10.77;7.57;;;8.00;75.70;;;;;;5040059;28;20026;-64
2023/01/04 08:23:48;;;;;;;10.45;7.30;;;8.00;75.50;;;;;;5043039;28;20033;-64
2023/01/04 08:26:15;;;;;;;11.13;7.30;;;8.10;75.50;;;;;;5040473;28;20041;-64
2023/01/04 08:28:41;;;;;;;9.77;7.00;;;8.10;75.40;;;;;;5044596;28;20048;-65
2023/01/04 08:31:10;;;;;;;10.88;7.40;;;8.20;75.30;;;;;;5041110;28;20021;-64
2023/01/04 08:33:38;;;;;;;11.27;6.60;;;8.30;75.50;;;;;;5035049;28;20081;-64
2023/01/04 08:36:17;;;;;;;9.85;6.50;;;8.30;75.40;;;;;;5038707;28;20026;-65
2023/01/04 08:38:43;;;;;;;10.88;6.85;;;8.40;75.50;;;;;;5044110;28;20064;-64
2023/01/04 08:41:08;;;;;;;8.77;6.43;;;8.40;75.30;;;;;;5054066;28;20082;-66
2023/01/04 08:43:35;;;;;;;8.20;6.07;;;8.50;75.30;;;;;;5049097;28;20085;-65
2023/01/04 08:46:03;;;;;;;8.98;6.22;;;8.60;75.40;;;;;;5055205;28;20021;-64
2023/01/04 08:48:29;;;;;;;10.30;6.72;;;8.60;75.30;;;;;;5044382;28;20067;-64
2023/01/04 08:50:58;;;;;;;8.98;6.15;;;8.70;75.30;;;;;;5045865;28;20026;-64
2023/01/04 08:53:23;;;;;;;9.32;5.90;;;8.70;75.20;;;;;;5050661;28;20057;-65
2023/01/04 08:55:51;;;;;;;7.88;6.35;;;8.80;74.90;;;;;;5044786;28;20108;-64
2023/01/04 08:58:17;;;;;;;7.85;5.60;;;8.80;74.70;;;;;;5044061;28;20045;-65
2023/01/04 09:00:42;;;;;;;8.88;5.95;;;8.90;74.60;;;;;;5047473;28;20016;-64
2023/01/04 09:03:08;;;;;;;11.23;6.38;;;8.90;74.50;;;;;;5054208;28;20029;-65
2023/01/04 09:05:33;;;;;;;9.80;6.50;;;8.90;74.60;;;;;;5054523;28;20085;-65
2023/01/04 09:07:59;;;;;;;9.63;6.45;;;9.00;74.40;;;;;;5051285;28;20067;-65
2023/01/04 09:10:26;;;;;;;8.52;5.50;;;9.00;74.40;;;;;;5048099;28;20092;-65
2023/01/04 09:12:52;;;;;;;7.85;5.53;;;9.10;74.30;;;;;;5059719;28;20025;-65
2023/01/04 09:15:18;;;;;;;6.60;5.10;;;9.10;74.30;;;;;;5043165;28;20043;-65
2023/01/04 09:17:43;;;;;;;5.55;4.25;;;9.10;74.20;;;;;;5057298;28;20025;-65
2023/01/04 09:20:10;;;;;;;7.82;5.03;;;9.10;74.00;;;;;;4940954;28;20029;-65
2023/01/04 09:22:35;;;;;;;7.55;5.40;;;9.10;73.90;;;;;;5049048;28;20045;-65
2023/01/04 09:25:01;;;;;;;6.22;4.53;;;9.20;73.90;;;;;;5048379;28;20029;-64
2023/01/04 09:27:27;;;;;;;10.27;5.25;;;9.20;74.00;;;;;;5054624;28;20061;-65
2023/01/04 09:29:53;;;;;;;8.45;4.90;;;9.20;73.80;;;;;;5055920;28;20037;-64
2023/01/04 09:32:18;;;;;;;6.72;4.30;;;9.20;73.90;;;;;;5052384;28;20115;-64
2023/01/04 09:34:44;;;;;;;8.32;3.97;;;9.20;73.90;;;;;;5049037;28;20356;-64
2023/01/04 09:37:10;;;;;;;5.40;3.95;;;9.20;74.00;;;;;;5050784;28;20025;-64
2023/01/04 09:39:36;;;;;;;6.78;4.00;;;9.20;74.00;;;;;;5052533;28;20028;-64
2023/01/04 09:42:04;;;;;;;5.07;4.05;;;9.20;73.80;;;;;;5054123;28;20026;-64
2023/01/04 09:45:05;;;;;;;5.35;3.85;;;9.30;74.00;;;;;;5050993;28;20028;-64
2023/01/04 09:47:37;;;;;;;5.25;3.70;;;9.30;74.40;;;;;;5035212;28;20160;-64
2023/01/04 09:50:25;;;;;;;4.93;3.88;;;9.30;74.10;;;;;;5039944;28;20061;-64
2023/01/04 09:53:10;;;;;;;5.70;3.58;;;9.30;74.00;;;;;;5039597;28;20075;-64
2023/01/04 09:55:41;;;;;;;4.53;3.78;;;9.40;74.20;;;;;;5036010;28;20030;-63
2023/01/04 09:58:35;;;;;;;4.97;3.97;;;9.40;74.20;;;;;;5048635;28;20028;-62
2023/01/04 10:01:21;;;;;;;6.20;3.97;;;9.40;74.50;;;;;;5042757;28;20040;-63
2023/01/04 10:04:11;;;;;;;4.90;3.33;;;9.50;74.30;;;;;;5042226;28;20048;-65
2023/01/04 10:06:37;;;;;;;8.13;3.92;;;9.50;74.20;;;;;;5040600;28;20045;-64
2023/01/04 10:09:09;;;;;;;5.05;3.67;;;9.50;74.10;;;;;;5051939;28;20041;-63
2023/01/04 10:11:53;;;;;;;5.70;3.80;;;9.60;74.30;;;;;;5039521;28;20033;-64
2023/01/04 10:14:28;;;;;;;4.47;3.00;;;9.60;74.60;;;;;;5033798;28;20033;-65
2023/01/04 10:17:32;;;;;;;5.20;3.67;;;9.70;74.30;;;;;;5040574;28;20151;-65
2023/01/04 10:20:33;;;;;;;5.28;3.28;;;9.80;74.00;;;;;;4986556;28;20071;-65
2023/01/04 10:23:38;;;;;;;4.75;3.33;;;9.80;74.00;;;;;;5058349;28;20094;-65
2023/01/04 10:26:16;;;;;;;6.47;3.75;;;9.90;73.70;;;;;;5059422;28;20095;-65
2023/01/04 10:28:55;;;;;;;5.38;3.35;;;10.00;73.60;;;;;;5059041;28;20226;-65
2023/01/04 10:31:29;;;;;;;5.97;3.90;;;10.00;73.40;;;;;;5052528;28;20128;-64
2023/01/04 10:34:24;;;;;;;4.88;3.47;;;10.00;73.10;;;;;;5053922;28;20039;-65
2023/01/04 10:36:55;;;;;;;4.47;3.80;;;10.00;72.90;;;;;;5056413;28;20071;-65
2023/01/04 10:39:25;;;;;;;6.32;3.78;;;10.00;72.80;;;;;;5061072;28;20071;-65
2023/01/04 10:42:05;;;;;;;6.47;4.03;;;9.90;72.80;;;;;;5053203;28;20147;-65
2023/01/04 10:44:47;;;;;;;4.70;3.80;;;9.90;72.90;;;;;;5064673;28;20044;-65
2023/01/04 10:47:28;;;;;;;5.47;3.88;;;9.90;73.00;;;;;;5060611;28;20021;-64
2023/01/04 10:49:57;;;;;;;8.48;4.07;;;9.90;72.90;;;;;;5068617;28;20055;-64
2023/01/04 10:52:47;;;;;;;5.72;3.80;;;9.90;72.90;;;;;;5073074;28;20063;-64
2023/01/04 10:55:18;;;;;;;6.95;4.25;;;9.90;73.00;;;;;;5051582;28;20064;-64
2023/01/04 10:58:09;;;;;;;4.90;4.15;;;9.90;72.90;;;;;;5055888;28;20033;-63
2023/01/04 11:00:43;;;;;;;4.65;4.00;;;10.00;73.10;;;;;;5043516;28;20549;-65
2023/01/04 11:03:26;;;;;;;5.05;3.70;;;10.00;73.00;;;;;;5044706;28;20036;-64
2023/01/04 11:06:20;;;;;;;5.28;3.90;;;10.00;73.00;;;;;;5052075;28;20052;-64
2023/01/04 11:08:57;;;;;;;5.17;3.70;;;10.00;73.00;;;;;;5035651;28;20030;-64
2023/01/04 11:11:31;;;;;;;8.48;4.30;;;10.00;72.70;;;;;;5052893;28;20045;-64
2023/01/04 11:13:58;;;;;;;;;;;10.00;72.70;;;;;;5037605;28;20026;-66
2023/01/04 11:16:24;;;;;;;4.93;3.80;;;10.10;72.70;;;;;;5052135;28;19909;-65
2023/01/04 11:18:51;;;;;;;5.88;4.30;;;10.10;72.40;;;;;;5039185;28;20030;-64
2023/01/04 11:21:21;;;;;;;5.03;3.45;;;10.10;72.40;;;;;;5055775;28;20025;-65
2023/01/04 11:23:47;;;;;;;4.00;3.40;;;10.10;72.50;;;;;;5041146;28;20036;-65
2023/01/04 11:26:20;;;;;;;4.57;3.30;;;10.10;72.40;;;;;;5037982;28;20030;-65
2023/01/04 11:28:52;;;;;;;5.63;3.90;;;10.10;72.50;;;;;;5045232;28;20039;-65
2023/01/04 11:31:35;;;;;;;5.65;3.63;;;10.20;72.30;;;;;;5058626;28;20043;-65
2023/01/04 11:34:02;;;;;;;4.90;3.17;;;10.20;72.10;;;;;;5041300;28;20052;-65
2023/01/04 11:36:43;;;;;;;3.30;2.78;;;10.20;72.20;;;;;;5045082;28;20044;-65
2023/01/04 11:39:23;;;;;;;5.03;3.35;;;10.30;72.20;;;;;;5043374;28;20037;-65
2023/01/04 11:41:56;;;;;;;5.07;3.00;;;10.30;72.00;;;;;;5049041;28;20029;-65
2023/01/04 11:44:23;;;;;;;3.77;3.20;;;10.40;72.20;;;;;;5046790;28;20461;-65
2023/01/04 11:47:04;;;;;;;3.97;3.15;;;10.40;72.10;;;;;;5046742;28;20263;-65
2023/01/04 11:49:35;;;;;;;4.05;3.08;;;10.40;71.80;;;;;;5052272;28;20037;-64
2023/01/04 11:52:01;;;;;;;4.65;2.95;;;10.50;71.80;;;;;;5052109;28;20045;-64
2023/01/04 11:54:26;;;;;;;3.05;2.75;;;10.60;72.10;;;;;;5048628;28;20083;-65
2023/01/04 11:57:01;;;;;;;4.30;2.75;;;10.60;72.00;;;;;;5039964;28;20025;-65
2023/01/04 11:59:27;;;;;;;4.32;2.90;;;10.70;71.80;;;;;;5047557;28;20416;-64
2023/01/04 12:02:20;;;;;;;3.75;2.60;;;10.70;71.60;;;;;;5046444;28;20021;-64
2023/01/04 12:04:46;;;;;;;4.47;2.60;;;10.90;71.30;;;;;;5048034;28;20017;-64
2023/01/04 12:07:32;;;;;;;6.57;3.50;;;10.90;71.70;;;;;;5059794;28;20029;-65
2023/01/04 12:10:00;;;;;;;4.03;2.80;;;11.00;71.60;;;;;;5043977;28;20100;-64
2023/01/04 12:12:32;;;;;;;4.88;3.15;;;11.10;71.30;;;;;;5048941;28;20041;-63
2023/01/04 12:15:08;;;;;;;3.58;2.55;;;11.20;70.80;;;;;;5045893;28;20028;-66
2023/01/04 12:17:58;;;;;;;6.18;4.25;;;11.30;70.50;;;;;;5041876;28;20056;-65
2023/01/04 12:20:27;;;;;;;4.47;2.60;;;11.40;70.40;;;;;;5051580;28;20081;-65
2023/01/04 12:22:53;;;;;;;5.20;3.10;;;11.50;70.20;;;;;;5053153;28;20051;-65
2023/01/04 12:25:24;;;;;;;4.40;2.90;;;11.50;70.20;;;;;;5066158;28;20525;-65
2023/01/04 12:27:51;;;;;;;4.75;3.17;;;11.60;69.70;;;;;;5053059;28;20760;-65
2023/01/04 12:30:50;;;;;;;3.30;2.85;;;11.70;69.50;;;;;;5055895;28;20030;-65
2023/01/04 12:33:37;;;;;;;3.63;3.00;;;11.80;69.20;;;;;;5028105;28;20113;-65
2023/01/04 12:36:13;;;;;;;3.40;2.88;;;11.80;68.40;;;;;;5022335;28;20046;-65
2023/01/04 12:38:51;;;;;;;3.05;2.70;;;11.90;68.10;;;;;;5007367;28;20034;-64
2023/01/04 12:41:17;;;;;;;4.82;2.70;;;11.90;68.10;;;;;;5029780;28;20029;-64
2023/01/04 12:43:46;;;;;;;2.53;2.20;;;11.90;68.60;;;;;;5010993;28;20049;-65
2023/01/04 12:49:49;;;;;;;2.60;2.40;;;11.90;67.40;;;;;;5027407;28;20085;-64
2023/01/04 12:52:15;;;;;;;3.03;2.58;;;11.90;67.80;;;;;;5022661;28;20069;-64
2023/01/04 12:54:45;;;;;;;4.15;2.65;;;11.80;68.30;;;;;;5026059;28;20030;-65
2023/01/04 12:57:16;;;;;;;2.50;2.30;;;11.90;68.00;;;;;;5032175;28;20037;-64
2023/01/04 13:00:03;;;;;;;4.43;2.70;;;11.80;68.30;;;;;;5034195;28;20033;-63
2023/01/04 13:02:30;;;;;;;3.92;2.70;;;11.80;68.00;;;;;;5025940;28;20140;-64
2023/01/04 13:05:19;;;;;;;6.07;2.65;;;11.80;68.50;;;;;;5017022;28;20570;-64
2023/01/04 13:07:59;;;;;;;5.93;3.08;;;11.80;67.90;;;;;;5008687;28;20042;-64
2023/01/04 13:10:35;;;;;;;7.75;2.70;;;11.80;68.00;;;;;;5047965;28;20106;-64
2023/01/04 13:13:26;;;;;;;3.85;2.58;;;11.80;68.00;;;;;;5042542;28;20026;-65
2023/01/04 13:16:16;;;;;;;5.10;2.70;;;11.80;68.20;;;;;;5048923;28;20028;-65
2023/01/04 13:18:53;;;;;;;3.47;2.47;;;11.70;68.10;;;;;;5046601;28;20033;-64
2023/01/04 13:21:39;;;;;;;4.72;2.90;;;11.70;68.30;;;;;;5040660;28;20033;-66
2023/01/04 13:24:35;;;;;;;3.95;2.60;;;11.70;68.30;;;;;;5041609;28;20028;-64
2023/01/04 13:27:14;;;;;;;3.10;2.58;;;11.70;68.40;;;;;;5063912;28;20089;-64
2023/01/04 13:29:40;;;;;;;4.28;2.50;;;11.70;68.50;;;;;;5049799;28;20064;-64
2023/01/04 13:32:11;;;;;;;3.72;2.35;;;11.70;68.50;;;;;;5041239;28;20022;-63
2023/01/04 13:34:51;;;;;;;2.80;2.17;;;11.70;68.70;;;;;;5046617;28;20554;-64
2023/01/04 13:37:33;;;;;;;3.38;2.55;;;11.70;68.40;;;;;;5044561;28;20029;-64
2023/01/04 13:40:10;;;;;;;3.00;2.40;;;11.70;68.90;;;;;;5044192;28;20087;-63
2023/01/04 13:42:40;;;;;;;3.83;2.30;;;11.80;68.60;;;;;;5037152;28;20021;-64
2023/01/04 13:45:23;;;;;;;4.30;1.80;;;11.90;68.50;;;;;;5041697;28;20018;-65
2023/01/04 13:47:51;;;;;;;3.58;2.00;;;11.90;68.40;;;;;;5043886;28;20045;-65
2023/01/04 13:50:45;;;;;;;3.20;2.15;;;11.90;68.30;;;;;;5046908;28;20037;-65
2023/01/04 13:53:22;;;;;;;2.05;1.67;;;11.90;67.60;;;;;;5049514;28;20079;-64
2023/01/04 13:55:54;;;;;;;3.17;2.40;;;11.90;67.70;;;;;;5043939;28;20033;-65
2023/01/04 13:58:23;;;;;;;2.58;1.90;;;11.90;67.70;;;;;;5044848;28;20496;-65
2023/01/04 14:01:00;;;;;;;4.30;2.08;;;11.80;67.70;;;;;;5054274;28;20033;-65